Time;durP1;ratioP1;P1;durP2;ratioP2;P2;SDS_P1;SDS_P2;PMS_P1;PMS_P2;Temp;Humidity;BMP_temperature;BMP_pressure;BME280_temperature;BME280_humidity;BME280_pressure;Samples;Min_cycle;Max_cycle;Signal;HPM_P1;HPM_P2
2024/02/29 00:00:22;;;;;;;4.20;3.47;;;2.90;99.90;;;;;;5116493;28;21009;-78
2024/02/29 00:02:49;;;;;;;12.80;3.73;;;2.90;99.90;;;;;;5116931;28;20443;-78
2024/02/29 00:05:16;;;;;;;9.90;2.17;;;2.90;99.90;;;;;;5119443;28;20439;-78
2024/02/29 00:07:44;;;;;;;6.13;2.77;;;2.90;99.90;;;;;;5121513;28;20450;-79
2024/02/29 00:10:11;;;;;;;7.30;3.10;;;2.90;99.90;;;;;;5118689;28;20485;-79
2024/02/29 00:12:39;;;;;;;9.50;2.43;;;3.00;99.90;;;;;;5117209;28;20443;-79
2024/02/29 00:15:07;;;;;;;8.07;3.37;;;3.00;99.90;;;;;;5116083;28;20450;-79
2024/02/29 00:17:34;;;;;;;4.90;3.03;;;3.00;99.90;;;;;;5116069;28;20443;-79
2024/02/29 00:20:00;;;;;;;17.13;3.83;;;3.00;99.90;;;;;;5115662;28;21018;-79
2024/02/29 00:22:27;;;;;;;6.90;2.97;;;3.10;99.90;;;;;;5116291;28;20450;-78
2024/02/29 00:24:55;;;;;;;7.00;3.20;;;3.00;99.90;;;;;;5116385;28;20439;-78
2024/02/29 00:27:23;;;;;;;15.83;4.43;;;3.00;99.90;;;;;;5116512;28;20445;-78
2024/02/29 00:29:50;;;;;;;8.17;3.77;;;3.00;99.90;;;;;;5115684;28;20466;-79
2024/02/29 00:32:16;;;;;;;8.80;3.17;;;3.00;99.90;;;;;;5115824;28;20443;-79
2024/02/29 00:34:43;;;;;;;5.93;2.40;;;3.00;99.90;;;;;;5115552;27;20940;-79
2024/02/29 00:37:10;;;;;;;7.87;2.27;;;3.00;99.90;;;;;;5115272;28;20440;-79
2024/02/29 00:39:36;;;;;;;7.73;3.90;;;2.90;99.90;;;;;;5115652;28;20855;-79
2024/02/29 00:42:05;;;;;;;10.20;4.20;;;2.90;99.90;;;;;;5115766;28;20439;-78
2024/02/29 00:44:31;;;;;;;11.60;3.00;;;2.90;99.90;;;;;;5115740;28;20438;-78
2024/02/29 00:46:58;;;;;;;11.50;5.73;;;2.80;99.90;;;;;;5115454;28;20943;-79
2024/02/29 00:49:25;;;;;;;5.97;2.73;;;2.80;99.90;;;;;;5116331;28;20864;-78
2024/02/29 00:51:52;;;;;;;6.10;2.80;;;2.70;99.90;;;;;;5115972;28;20442;-79
2024/02/29 00:54:19;;;;;;;13.40;4.03;;;2.70;99.90;;;;;;5115732;28;20449;-79
2024/02/29 00:56:45;;;;;;;9.77;3.07;;;2.70;99.90;;;;;;5115585;28;20508;-79
2024/02/29 00:59:13;;;;;;;5.90;2.97;;;2.60;99.90;;;;;;5115423;28;20479;-79
2024/02/29 01:01:40;;;;;;;7.20;3.00;;;2.70;99.90;;;;;;5115487;28;20441;-79
2024/02/29 01:04:07;;;;;;;4.10;2.70;;;2.70;99.90;;;;;;5115647;28;20465;-79
2024/02/29 01:06:34;;;;;;;4.37;2.87;;;2.70;99.90;;;;;;5115282;28;20435;-78
2024/02/29 01:09:01;;;;;;;7.20;3.10;;;2.80;99.90;;;;;;5114642;28;20451;-78
2024/02/29 01:11:28;;;;;;;7.87;3.83;;;2.80;99.90;;;;;;5114894;28;20479;-78
2024/02/29 01:13:54;;;;;;;17.73;4.40;;;2.70;99.90;;;;;;5114720;28;20534;-78
2024/02/29 01:16:22;;;;;;;7.73;2.23;;;2.70;99.90;;;;;;5115262;28;20443;-78
2024/02/29 01:18:49;;;;;;;4.07;2.73;;;2.60;99.90;;;;;;5115559;28;20502;-78
2024/02/29 01:21:16;;;;;;;6.20;2.90;;;2.60;99.90;;;;;;5115702;28;20445;-79
2024/02/29 01:23:42;;;;;;;12.40;4.30;;;2.50;99.90;;;;;;5114927;28;20450;-79
2024/02/29 01:26:10;;;;;;;5.60;4.10;;;2.50;99.90;;;;;;5115678;28;20443;-78
2024/02/29 01:28:37;;;;;;;9.00;3.00;;;2.50;99.90;;;;;;5115790;28;20979;-78
2024/02/29 01:31:04;;;;;;;8.33;4.00;;;2.50;99.90;;;;;;5116057;28;20447;-78
2024/02/29 01:33:32;;;;;;;6.60;3.03;;;2.50;99.90;;;;;;5115631;28;20442;-78
2024/02/29 01:35:58;;;;;;;13.00;3.20;;;2.50;99.90;;;;;;5115601;28;20443;-79
2024/02/29 01:38:25;;;;;;;8.30;3.47;;;2.50;99.90;;;;;;5115765;28;20443;-79
2024/02/29 01:40:52;;;;;;;7.30;3.37;;;2.60;99.90;;;;;;5115358;28;20483;-78
2024/02/29 01:43:19;;;;;;;3.33;3.00;;;2.50;99.90;;;;;;5116312;28;20443;-78
2024/02/29 01:45:49;;;;;;;10.57;2.53;;;2.50;99.90;;;;;;5115540;28;20450;-78
2024/02/29 01:48:16;;;;;;;10.73;4.20;;;2.50;99.90;;;;;;5116596;28;20927;-78
2024/02/29 01:50:44;;;;;;;9.17;2.60;;;2.50;99.90;;;;;;5120051;28;20435;-78
2024/02/29 01:53:11;;;;;;;5.93;2.73;;;2.40;99.90;;;;;;5119468;28;20435;-78
2024/02/29 01:55:38;;;;;;;6.73;4.50;;;2.40;99.90;;;;;;5119689;28;20449;-78
2024/02/29 01:58:05;;;;;;;6.73;2.93;;;2.40;99.90;;;;;;5119975;27;20450;-78
2024/02/29 02:00:33;;;;;;;7.60;2.53;;;2.30;99.90;;;;;;5119551;28;20488;-78
2024/02/29 02:02:59;;;;;;;6.87;2.50;;;2.30;99.90;;;;;;5119270;28;20935;-78
2024/02/29 02:05:26;;;;;;;5.70;3.03;;;2.30;99.90;;;;;;5119096;28;20438;-78
2024/02/29 02:07:54;;;;;;;11.13;6.60;;;2.30;99.90;;;;;;5119347;28;20450;-78
2024/02/29 02:10:21;;;;;;;8.50;3.27;;;2.30;99.90;;;;;;5118651;28;20486;-78
2024/02/29 02:12:48;;;;;;;11.00;2.93;;;2.30;99.90;;;;;;5119389;28;20449;-78
2024/02/29 02:15:14;;;;;;;9.07;4.23;;;2.30;99.90;;;;;;5119430;28;20554;-79
2024/02/29 02:17:43;;;;;;;5.93;3.77;;;2.30;99.90;;;;;;5118753;28;20446;-78
2024/02/29 02:20:16;;;;;;;6.90;2.40;;;2.20;99.90;;;;;;5118759;28;20478;-78
2024/02/29 02:22:43;;;;;;;7.70;2.20;;;2.20;99.90;;;;;;5119220;28;20434;-79
2024/02/29 02:25:10;;;;;;;7.17;4.97;;;2.20;99.90;;;;;;5119735;28;20439;-79
2024/02/29 02:27:38;;;;;;;3.87;2.87;;;2.20;99.90;;;;;;5118486;28;20443;-78
2024/02/29 02:30:06;;;;;;;5.93;3.60;;;2.20;99.90;;;;;;5118224;28;20459;-78
2024/02/29 02:32:33;;;;;;;15.33;4.70;;;2.20;99.90;;;;;;5118807;28;20465;-79
2024/02/29 02:35:00;;;;;;;9.03;4.70;;;2.20;99.90;;;;;;5118252;28;20443;-78
2024/02/29 02:37:28;;;;;;;4.40;3.17;;;2.20;99.90;;;;;;5118210;28;20442;-78
2024/02/29 02:39:55;;;;;;;7.47;3.00;;;2.20;99.90;;;;;;5118079;28;20852;-79
2024/02/29 02:42:21;;;;;;;13.00;4.17;;;2.10;99.90;;;;;;5118468;27;20450;-79
2024/02/29 02:44:48;;;;;;;5.47;2.87;;;2.10;99.90;;;;;;5118180;28;20446;-79
2024/02/29 02:47:15;;;;;;;5.70;2.83;;;2.10;99.90;;;;;;5118671;28;20439;-78
2024/02/29 02:49:42;;;;;;;2.20;1.37;;;2.10;99.90;;;;;;5118475;28;20451;-78
2024/02/29 02:52:09;;;;;;;12.93;3.57;;;2.00;99.90;;;;;;5118541;28;20447;-78
2024/02/29 02:54:38;;;;;;;7.53;4.20;;;2.00;99.90;;;;;;5118436;28;20533;-78
2024/02/29 02:57:05;;;;;;;4.20;2.73;;;1.90;99.90;;;;;;5118045;28;20440;-78
2024/02/29 02:59:32;;;;;;;5.97;3.67;;;2.00;99.90;;;;;;5117467;27;20485;-78
2024/02/29 03:01:58;;;;;;;9.27;4.03;;;2.00;99.90;;;;;;5118043;28;20443;-78
2024/02/29 03:04:25;;;;;;;4.70;3.37;;;2.00;99.90;;;;;;5117748;28;20436;-78
2024/02/29 03:06:52;;;;;;;3.57;2.43;;;2.00;99.90;;;;;;5117939;28;21014;-78
2024/02/29 03:09:19;;;;;;;8.40;4.27;;;1.90;99.90;;;;;;5117918;27;20466;-78
2024/02/29 03:11:47;;;;;;;5.17;3.77;;;1.90;99.90;;;;;;5118022;28;20471;-78
2024/02/29 03:14:15;;;;;;;10.03;4.27;;;1.90;99.90;;;;;;5117696;28;20451;-78
2024/02/29 03:16:42;;;;;;;12.73;4.30;;;1.90;99.90;;;;;;5117732;28;20489;-78
2024/02/29 03:19:09;;;;;;;4.80;2.97;;;1.80;99.90;;;;;;5118393;27;20459;-78
2024/02/29 03:21:36;;;;;;;8.23;4.30;;;1.80;99.90;;;;;;5118816;28;20450;-79
2024/02/29 03:24:02;;;;;;;8.27;2.60;;;1.80;99.90;;;;;;5118227;28;20431;-78
2024/02/29 03:26:29;;;;;;;9.30;2.83;;;1.80;99.90;;;;;;5118286;28;20447;-78
2024/02/29 03:28:57;;;;;;;9.43;3.60;;;1.80;99.90;;;;;;5118314;28;20465;-78
2024/02/29 03:31:24;;;;;;;6.03;1.53;;;1.80;99.90;;;;;;5118880;28;20443;-78
2024/02/29 03:33:50;;;;;;;16.30;4.43;;;1.80;99.90;;;;;;5118592;28;20447;-78
2024/02/29 03:36:17;;;;;;;8.00;4.77;;;1.80;99.90;;;;;;5118588;28;20924;-78
2024/02/29 03:38:45;;;;;;;3.70;1.77;;;1.80;99.90;;;;;;5118059;28;20454;-78
2024/02/29 03:41:12;;;;;;;4.73;2.23;;;1.80;99.90;;;;;;5117972;28;20482;-79
2024/02/29 03:43:39;;;;;;;7.80;3.23;;;1.80;99.90;;;;;;5117801;28;20453;-78
2024/02/29 03:46:07;;;;;;;7.43;2.83;;;1.70;99.90;;;;;;5117138;28;20443;-78
2024/02/29 03:48:34;;;;;;;11.70;3.43;;;1.70;99.90;;;;;;5117629;28;20516;-78
2024/02/29 03:51:00;;;;;;;6.97;3.67;;;1.70;99.90;;;;;;5117479;28;20431;-78
2024/02/29 03:53:27;;;;;;;4.73;1.63;;;1.70;99.90;;;;;;5117506;28;20439;-78
2024/02/29 03:55:54;;;;;;;13.40;3.90;;;1.70;99.90;;;;;;5117468;28;20435;-78
2024/02/29 03:58:20;;;;;;;6.37;3.73;;;1.70;99.90;;;;;;5118106;28;20435;-78
2024/02/29 04:00:48;;;;;;;2.93;2.17;;;1.70;99.90;;;;;;5118186;28;20471;-78
2024/02/29 04:03:16;;;;;;;5.00;3.30;;;1.70;99.90;;;;;;5119214;28;20950;-78
2024/02/29 04:05:43;;;;;;;4.83;4.47;;;1.70;99.90;;;;;;5117525;28;20447;-79
2024/02/29 04:08:11;;;;;;;7.90;3.07;;;1.70;99.90;;;;;;5117248;28;20819;-78
2024/02/29 04:10:39;;;;;;;7.87;4.67;;;1.60;99.90;;;;;;5116798;28;20471;-78
2024/02/29 04:13:06;;;;;;;10.43;5.27;;;1.60;99.90;;;;;;5116329;28;20447;-78
2024/02/29 04:15:32;;;;;;;9.50;2.87;;;1.60;99.90;;;;;;5117125;28;20488;-79
2024/02/29 04:17:59;;;;;;;10.00;3.00;;;1.60;99.90;;;;;;5117105;28;20447;-78
2024/02/29 04:20:27;;;;;;;2.23;2.13;;;1.50;99.90;;;;;;5120327;28;20501;-78
2024/02/29 04:22:54;;;;;;;7.47;3.80;;;1.60;99.90;;;;;;5118330;28;20447;-78
2024/02/29 04:25:22;;;;;;;5.60;4.17;;;1.60;99.90;;;;;;5132236;28;20427;-79
2024/02/29 04:27:49;;;;;;;4.13;2.90;;;1.60;99.90;;;;;;5130438;28;20820;-79
2024/02/29 04:30:17;;;;;;;12.03;4.27;;;1.60;99.90;;;;;;5132389;28;20459;-79
2024/02/29 04:32:44;;;;;;;12.03;4.43;;;1.60;99.90;;;;;;5131288;28;20469;-79
2024/02/29 04:35:11;;;;;;;4.40;1.63;;;1.60;99.90;;;;;;5123349;28;20788;-78
2024/02/29 04:37:39;;;;;;;8.97;1.80;;;1.60;99.90;;;;;;5123386;28;20446;-78
2024/02/29 04:40:08;;;;;;;9.30;3.83;;;1.60;99.90;;;;;;5125426;28;20507;-79
2024/02/29 04:42:34;;;;;;;5.40;1.90;;;1.50;99.90;;;;;;5121302;28;20470;-79
2024/02/29 04:45:01;;;;;;;4.80;2.57;;;1.50;99.90;;;;;;5118048;28;20458;-79
2024/02/29 04:47:28;;;;;;;9.03;4.30;;;1.50;99.90;;;;;;5116250;28;20443;-79
2024/02/29 04:49:55;;;;;;;4.47;1.57;;;1.60;99.90;;;;;;5116636;28;20563;-79
2024/02/29 04:52:22;;;;;;;14.77;2.93;;;1.60;99.90;;;;;;5117336;28;20435;-79
2024/02/29 04:54:50;;;;;;;11.13;4.03;;;1.60;99.90;;;;;;5119536;28;20947;-79
2024/02/29 09:25:06;;;;;;;11.77;4.60;;;12.10;99.90;;;;;;5039315;28;20479;-84
2024/02/29 09:27:33;;;;;;;9.70;4.73;;;13.20;99.90;;;;;;5040339;28;20463;-84
2024/02/29 09:30:00;;;;;;;8.87;5.17;;;14.20;99.90;;;;;;5039570;28;20451;-85
2024/02/29 09:32:26;;;;;;;14.43;5.97;;;14.70;99.90;;;;;;5039377;28;20438;-85
2024/02/29 09:34:53;;;;;;;18.60;6.40;;;15.60;99.90;;;;;;5036544;28;20457;-84
2024/02/29 09:37:20;;;;;;;12.83;6.00;;;16.40;99.90;;;;;;5038730;28;20459;-84
2024/02/29 09:39:46;;;;;;;11.67;6.77;;;17.10;99.90;;;;;;5037870;28;20824;-84
2024/02/29 09:42:15;;;;;;;17.10;8.23;;;17.80;99.90;;;;;;5037622;28;20486;-84
2024/02/29 09:44:43;;;;;;;15.77;7.67;;;18.10;99.90;;;;;;5037808;28;20516;-84
2024/02/29 09:47:10;;;;;;;14.73;6.20;;;18.50;99.90;;;;;;5037907;28;20474;-84
2024/02/29 09:49:36;;;;;;;11.63;5.70;;;18.40;99.90;;;;;;5037604;28;20493;-84
2024/02/29 09:52:04;;;;;;;18.33;7.23;;;18.40;99.30;;;;;;5037196;28;20446;-84
2024/02/29 09:54:34;;;;;;;12.80;5.57;;;18.30;97.70;;;;;;5036842;28;20446;-84
2024/02/29 09:57:01;;;;;;;14.83;6.17;;;17.90;97.90;;;;;;5037168;28;20498;-84
2024/02/29 09:59:31;;;;;;;13.03;6.90;;;17.90;97.50;;;;;;5037235;28;20443;-84
2024/02/29 10:01:58;;;;;;;11.73;7.00;;;18.30;98.00;;;;;;5038683;28;20998;-84
2024/02/29 10:04:26;;;;;;;11.20;6.60;;;19.00;98.10;;;;;;5049770;28;20442;-83
2024/02/29 10:06:53;;;;;;;13.97;6.03;;;19.20;96.20;;;;;;5051989;28;20463;-84
2024/02/29 10:09:21;;;;;;;8.20;5.57;;;18.90;94.70;;;;;;5052671;28;20439;-83
2024/02/29 10:11:48;;;;;;;13.67;6.57;;;19.00;95.40;;;;;;5055839;28;20449;-83
2024/02/29 10:14:21;;;;;;;10.20;6.13;;;18.70;94.60;;;;;;5048599;28;20461;-84
2024/02/29 10:16:52;;;;;;;14.43;6.00;;;18.60;95.00;;;;;;5043990;28;20477;-84
2024/02/29 10:19:19;;;;;;;11.50;6.30;;;18.70;95.40;;;;;;5043634;28;20446;-84
2024/02/29 10:21:46;;;;;;;10.87;6.07;;;18.60;96.00;;;;;;5043716;28;20529;-84
2024/02/29 10:24:13;;;;;;;11.30;5.67;;;18.60;94.70;;;;;;5043187;28;20545;-84
2024/02/29 10:26:39;;;;;;;12.20;6.67;;;18.50;93.70;;;;;;5043381;28;21013;-84
2024/02/29 10:29:09;;;;;;;12.40;5.87;;;18.60;94.70;;;;;;5043743;28;20442;-83
2024/02/29 10:31:36;;;;;;;12.10;5.80;;;18.90;93.60;;;;;;5043423;28;20465;-84
2024/02/29 10:34:05;;;;;;;10.07;5.17;;;19.50;93.60;;;;;;5041877;28;20480;-83
2024/02/29 10:36:33;;;;;;;11.13;6.53;;;20.20;92.80;;;;;;5041464;28;20473;-84
2024/02/29 10:38:59;;;;;;;11.60;5.70;;;21.40;91.10;;;;;;5042377;28;20442;-84
2024/02/29 10:41:31;;;;;;;12.87;5.50;;;22.40;90.00;;;;;;5042543;28;20486;-80
2024/02/29 10:44:01;;;;;;;9.20;4.77;;;23.30;85.30;;;;;;5042144;28;20456;-86
2024/02/29 10:46:29;;;;;;;11.33;5.27;;;23.90;80.20;;;;;;5042580;28;20469;-86
2024/02/29 10:49:02;;;;;;;13.70;6.03;;;24.30;74.20;;;;;;5043620;28;20438;-83
2024/02/29 10:51:44;;;;;;;13.83;6.00;;;24.60;72.50;;;;;;5042195;28;20436;-82
2024/02/29 10:54:18;;;;;;;9.57;5.10;;;24.70;69.70;;;;;;5042227;28;20226;-82
2024/02/29 10:56:46;;;;;;;10.57;6.75;;;25.10;67.80;;;;;;5042949;28;20309;-84
2024/02/29 10:59:16;;;;;;;9.95;5.60;;;25.20;66.60;;;;;;5042419;28;20199;-82
2024/02/29 11:01:43;;;;;;;5.60;4.50;;;25.60;64.20;;;;;;5041519;28;20207;-81
2024/02/29 11:04:10;;;;;;;13.18;7.10;;;25.40;63.10;;;;;;5041922;28;20574;-80
2024/02/29 11:06:42;;;;;;;8.60;5.47;;;25.20;61.20;;;;;;5040321;28;20219;-81
2024/02/29 11:09:10;;;;;;;13.57;6.60;;;24.90;62.70;;;;;;5042623;28;20188;-81
2024/02/29 11:11:38;;;;;;;9.45;5.60;;;24.20;62.00;;;;;;5041675;28;20288;-81
2024/02/29 11:14:08;;;;;;;9.50;6.80;;;23.10;63.50;;;;;;5042488;28;20211;-81
2024/02/29 11:16:38;;;;;;;12.30;6.17;;;21.90;64.80;;;;;;5041549;28;20224;-80
2024/02/29 11:19:06;;;;;;;13.73;5.80;;;20.50;65.70;;;;;;5040587;28;20496;-80
2024/02/29 11:21:33;;;;;;;11.30;5.90;;;18.80;69.80;;;;;;5041001;28;20831;-80
2024/02/29 11:24:05;;;;;;;11.50;5.50;;;17.60;72.50;;;;;;5040538;28;20478;-80
2024/02/29 11:26:33;;;;;;;13.60;7.20;;;16.70;75.30;;;;;;5040777;28;20478;-80
2024/02/29 11:29:10;;;;;;;14.83;6.93;;;15.80;77.80;;;;;;5041170;28;20458;-80
2024/02/29 11:31:43;;;;;;;20.20;6.03;;;15.50;79.60;;;;;;5041914;28;20426;-80
2024/02/29 11:34:10;;;;;;;11.70;4.97;;;15.10;83.00;;;;;;5040684;28;20904;-80
2024/02/29 11:36:37;;;;;;;9.57;5.53;;;15.00;82.70;;;;;;5041083;28;21010;-80
2024/02/29 11:39:09;;;;;;;10.37;4.50;;;14.40;82.20;;;;;;5041401;28;20439;-79
2024/02/29 11:41:36;;;;;;;16.60;6.23;;;14.30;84.60;;;;;;5040688;28;20477;-79
2024/02/29 11:44:03;;;;;;;12.57;5.73;;;14.30;86.60;;;;;;5041103;28;20458;-79
2024/02/29 11:46:30;;;;;;;6.97;3.83;;;14.30;88.00;;;;;;5040977;28;20459;-80
2024/02/29 11:48:57;;;;;;;7.40;4.50;;;14.30;87.70;;;;;;5040535;28;20443;-79
2024/02/29 11:51:24;;;;;;;10.07;5.10;;;14.30;86.70;;;;;;5040580;28;20501;-79
2024/02/29 11:53:52;;;;;;;12.43;6.63;;;14.30;88.20;;;;;;5039309;28;20955;-79
2024/02/29 11:56:20;;;;;;;9.13;4.53;;;14.40;87.30;;;;;;5038606;28;20443;-79
2024/02/29 11:58:48;;;;;;;10.13;5.60;;;14.40;87.50;;;;;;5038225;28;20974;-79
2024/02/29 12:01:15;;;;;;;9.97;5.00;;;14.10;88.80;;;;;;5038511;28;20479;-79
2024/02/29 12:03:42;;;;;;;14.80;6.43;;;14.20;88.50;;;;;;5038532;28;20890;-79
2024/02/29 12:06:09;;;;;;;10.20;5.07;;;13.60;89.20;;;;;;5038120;28;20449;-79
2024/02/29 12:08:35;;;;;;;12.93;5.97;;;13.40;90.20;;;;;;5037442;28;20447;-79
2024/02/29 12:11:02;;;;;;;12.97;5.33;;;13.30;90.60;;;;;;5038330;28;20439;-79
2024/02/29 12:13:31;;;;;;;8.83;4.63;;;13.20;90.70;;;;;;5039391;28;20446;-79
2024/02/29 12:15:58;;;;;;;10.37;5.60;;;13.20;91.20;;;;;;5039882;28;20469;-79
2024/02/29 12:18:26;;;;;;;9.73;4.50;;;13.10;91.60;;;;;;5039138;28;20897;-79
2024/02/29 12:20:52;;;;;;;9.97;4.50;;;13.00;91.40;;;;;;5039614;28;20439;-79
2024/02/29 12:23:20;;;;;;;8.77;3.70;;;12.70;92.10;;;;;;5039847;28;20491;-80
2024/02/29 12:25:47;;;;;;;9.67;4.57;;;12.60;92.10;;;;;;5039427;28;20438;-79
2024/02/29 12:28:14;;;;;;;10.17;4.40;;;12.40;92.20;;;;;;5043871;28;20470;-79
2024/02/29 12:30:42;;;;;;;6.03;3.67;;;12.40;92.80;;;;;;5041020;28;20451;-80
2024/02/29 12:33:12;;;;;;;14.23;4.83;;;12.00;93.10;;;;;;5040235;28;20450;-80
2024/02/29 12:35:40;;;;;;;12.50;5.97;;;11.80;93.60;;;;;;5043094;28;20474;-79
2024/02/29 12:38:07;;;;;;;10.60;4.77;;;11.70;94.20;;;;;;5039945;28;20467;-80
2024/02/29 12:40:34;;;;;;;11.50;4.77;;;11.70;94.50;;;;;;5040480;28;20442;-80
2024/02/29 12:43:01;;;;;;;8.87;3.83;;;11.70;94.30;;;;;;5039955;28;20482;-80
2024/02/29 12:45:28;;;;;;;7.20;4.03;;;11.60;94.20;;;;;;5040378;28;20454;-79
2024/02/29 12:47:56;;;;;;;7.23;4.63;;;11.50;94.50;;;;;;5040453;28;20466;-80
2024/02/29 12:50:23;;;;;;;11.07;4.30;;;11.50;95.20;;;;;;5040080;28;20947;-80
2024/02/29 12:52:53;;;;;;;7.00;4.13;;;11.50;95.80;;;;;;5039683;28;20522;-79
2024/02/29 12:55:21;;;;;;;11.20;4.60;;;11.50;96.20;;;;;;5038956;28;20526;-80
2024/02/29 12:57:48;;;;;;;11.10;5.77;;;11.60;95.90;;;;;;5038964;28;20467;-80
2024/02/29 13:00:20;;;;;;;6.90;3.77;;;11.60;95.70;;;;;;5038716;28;20454;-79
2024/02/29 13:02:47;;;;;;;8.40;4.10;;;11.60;95.80;;;;;;5038862;28;20553;-79
2024/02/29 13:05:15;;;;;;;6.67;4.37;;;11.60;95.60;;;;;;5038532;28;20451;-79
2024/02/29 13:07:42;;;;;;;13.80;5.53;;;11.50;96.10;;;;;;5037909;28;20470;-80
2024/02/29 13:10:09;;;;;;;9.57;3.90;;;11.50;96.30;;;;;;5038342;28;20446;-80
2024/02/29 13:12:36;;;;;;;14.30;4.60;;;11.40;96.80;;;;;;5038279;28;20962;-79
2024/02/29 13:15:03;;;;;;;8.27;4.73;;;11.40;96.90;;;;;;5038132;28;20825;-79
2024/02/29 13:17:30;;;;;;;9.90;4.57;;;11.40;97.30;;;;;;5038421;28;20473;-80
2024/02/29 13:19:57;;;;;;;10.97;5.67;;;11.40;97.10;;;;;;5037751;28;20447;-79
2024/02/29 13:22:25;;;;;;;13.07;5.33;;;11.30;97.50;;;;;;5037567;28;20844;-79
2024/02/29 13:24:51;;;;;;;10.67;5.20;;;11.20;97.70;;;;;;5036759;28;20483;-80
2024/02/29 13:27:18;;;;;;;8.60;4.40;;;11.10;97.80;;;;;;5037346;28;20982;-79
2024/02/29 13:29:45;;;;;;;8.60;4.67;;;11.10;97.80;;;;;;5036710;28;20442;-79
2024/02/29 13:32:12;;;;;;;6.93;3.80;;;11.00;98.10;;;;;;5036897;28;20939;-79
2024/02/29 13:34:38;;;;;;;11.30;4.80;;;11.00;98.10;;;;;;5036024;28;20449;-80
2024/02/29 13:37:06;;;;;;;10.83;4.10;;;11.00;98.20;;;;;;5037008;28;20967;-79
2024/02/29 13:39:34;;;;;;;11.23;3.50;;;11.00;98.60;;;;;;5036559;28;20497;-80
2024/02/29 13:42:05;;;;;;;12.20;3.50;;;11.00;98.20;;;;;;5036660;28;20505;-80
2024/02/29 13:44:32;;;;;;;7.87;4.80;;;11.00;98.90;;;;;;5038004;28;20435;-79
2024/02/29 13:46:58;;;;;;;13.03;3.83;;;11.00;98.30;;;;;;5040693;28;20467;-80
2024/02/29 13:49:25;;;;;;;7.70;3.67;;;11.00;98.60;;;;;;5040510;28;20453;-80
2024/02/29 13:51:53;;;;;;;8.57;3.80;;;10.90;98.90;;;;;;5040196;28;20446;-80
2024/02/29 13:54:20;;;;;;;5.90;3.87;;;10.90;98.90;;;;;;5039401;28;20442;-80
2024/02/29 13:56:50;;;;;;;11.90;2.97;;;10.80;98.90;;;;;;5040245;28;20818;-79
2024/02/29 13:59:17;;;;;;;7.53;3.93;;;10.80;99.60;;;;;;5041840;28;20969;-80
2024/02/29 14:01:44;;;;;;;8.90;3.73;;;10.80;99.80;;;;;;5040016;28;20454;-80
2024/02/29 14:04:11;;;;;;;5.60;2.83;;;10.80;99.50;;;;;;5039411;28;20816;-80
2024/02/29 14:06:38;;;;;;;5.63;2.57;;;10.80;99.50;;;;;;5039332;28;20997;-80
2024/02/29 14:09:05;;;;;;;10.77;4.07;;;10.90;99.20;;;;;;5039014;28;20441;-80
2024/02/29 14:11:32;;;;;;;8.70;4.10;;;11.00;98.90;;;;;;5039010;28;20863;-80
2024/02/29 14:14:00;;;;;;;3.77;2.30;;;10.90;99.80;;;;;;5040269;28;20997;-80
2024/02/29 14:16:27;;;;;;;5.10;2.10;;;10.90;99.90;;;;;;5039604;28;20490;-80
2024/02/29 14:18:54;;;;;;;12.03;4.37;;;10.90;99.90;;;;;;5039040;28;20435;-80
2024/02/29 14:21:21;;;;;;;8.50;3.20;;;10.90;99.90;;;;;;5041665;28;20446;-81
2024/02/29 14:23:47;;;;;;;5.93;2.60;;;10.80;99.90;;;;;;5042332;28;20578;-79
2024/02/29 14:26:15;;;;;;;6.70;2.60;;;10.80;99.90;;;;;;5042359;28;20454;-80
2024/02/29 14:28:41;;;;;;;5.70;2.57;;;10.80;99.90;;;;;;5042813;28;20522;-80
2024/02/29 14:31:09;;;;;;;8.50;3.60;;;10.80;99.90;;;;;;5040790;28;20546;-86
2024/02/29 14:33:37;;;;;;;4.07;2.80;;;10.80;99.90;;;;;;5040396;28;20447;-81
2024/02/29 14:36:04;;;;;;;4.83;2.57;;;10.80;99.90;;;;;;5042979;28;20450;-81
2024/02/29 14:38:31;;;;;;;6.10;2.63;;;10.80;99.90;;;;;;5042375;28;20507;-81
2024/02/29 14:40:58;;;;;;;10.30;2.83;;;10.80;99.90;;;;;;5041925;28;20454;-81
2024/02/29 14:43:25;;;;;;;6.23;3.47;;;10.80;99.90;;;;;;5042518;28;20470;-81
2024/02/29 14:45:52;;;;;;;9.43;2.20;;;10.80;99.90;;;;;;5042012;28;20955;-82
2024/02/29 14:48:20;;;;;;;5.13;2.73;;;10.80;99.90;;;;;;5041744;28;20524;-81
2024/02/29 14:50:47;;;;;;;5.77;2.77;;;10.70;99.90;;;;;;5041180;28;20447;-81
2024/02/29 14:53:14;;;;;;;7.93;3.63;;;10.70;99.90;;;;;;5042317;28;20442;-81
2024/02/29 14:55:41;;;;;;;8.77;3.40;;;10.60;99.90;;;;;;5040367;28;20450;-81
2024/02/29 14:58:08;;;;;;;9.80;3.77;;;10.70;99.90;;;;;;5041384;28;20497;-81
2024/02/29 15:00:34;;;;;;;5.63;3.40;;;10.70;99.90;;;;;;5040267;28;20944;-81
2024/02/29 15:03:01;;;;;;;9.40;3.40;;;10.70;99.90;;;;;;5040222;28;20478;-81
2024/02/29 15:05:29;;;;;;;8.60;4.07;;;10.60;99.90;;;;;;5041664;28;20434;-81
2024/02/29 15:07:57;;;;;;;4.20;2.03;;;10.60;99.90;;;;;;5040083;28;20497;-81
2024/02/29 15:10:24;;;;;;;3.90;2.70;;;10.60;99.90;;;;;;5039880;28;20462;-81
2024/02/29 15:12:51;;;;;;;8.20;3.63;;;10.50;99.90;;;;;;5039752;28;20447;-81
2024/02/29 15:15:18;;;;;;;9.17;3.80;;;10.50;99.90;;;;;;5039918;28;20443;-81
2024/02/29 15:17:44;;;;;;;6.13;2.50;;;10.60;99.90;;;;;;5039293;28;20474;-81
2024/02/29 15:20:12;;;;;;;5.70;3.03;;;10.50;99.90;;;;;;5039199;28;20435;-81
2024/02/29 15:22:40;;;;;;;6.43;3.40;;;10.60;99.90;;;;;;5039247;28;20474;-81
2024/02/29 15:25:14;;;;;;;4.90;2.77;;;10.60;99.90;;;;;;5041076;28;20445;-81
2024/02/29 15:27:41;;;;;;;5.57;2.70;;;10.50;99.90;;;;;;5040092;28;20463;-80
2024/02/29 15:30:09;;;;;;;5.27;2.77;;;10.50;99.90;;;;;;5038686;28;20915;-81
2024/02/29 15:32:36;;;;;;;5.83;3.07;;;10.50;99.90;;;;;;5038786;28;20854;-81
2024/02/29 15:35:04;;;;;;;4.80;2.27;;;10.50;99.90;;;;;;5038525;28;20449;-81
2024/02/29 15:37:31;;;;;;;7.60;3.40;;;10.40;99.90;;;;;;5039109;28;20458;-81
2024/02/29 15:40:00;;;;;;;7.27;3.27;;;10.30;99.90;;;;;;5038363;28;20446;-81
2024/02/29 15:42:26;;;;;;;5.73;3.70;;;10.40;99.90;;;;;;5038577;28;20898;-81
2024/02/29 15:44:53;;;;;;;9.27;4.00;;;10.40;99.90;;;;;;5037666;28;20454;-81
2024/02/29 15:47:20;;;;;;;5.70;3.20;;;10.40;99.90;;;;;;5037319;28;20494;-81
2024/02/29 15:49:47;;;;;;;5.70;2.30;;;10.40;99.90;;;;;;5037235;28;20474;-81
2024/02/29 15:52:14;;;;;;;6.20;2.60;;;10.40;99.90;;;;;;5036831;28;20497;-81
2024/02/29 15:54:41;;;;;;;6.47;3.53;;;10.30;99.90;;;;;;5036995;28;20963;-81
2024/02/29 15:57:09;;;;;;;5.20;2.63;;;10.30;99.90;;;;;;5037196;28;20473;-81
2024/02/29 15:59:36;;;;;;;6.70;3.47;;;10.20;99.90;;;;;;5036834;28;20454;-81
2024/02/29 16:02:02;;;;;;;12.60;2.80;;;10.20;99.90;;;;;;5036608;28;20812;-81
2024/02/29 16:04:30;;;;;;;10.60;4.33;;;10.20;99.90;;;;;;5037816;28;20486;-81
2024/02/29 16:06:58;;;;;;;10.33;3.83;;;10.20;99.90;;;;;;5037437;28;20815;-80
2024/02/29 16:09:25;;;;;;;5.90;3.27;;;10.20;99.90;;;;;;5037721;28;20853;-81
2024/02/29 16:11:52;;;;;;;9.17;2.80;;;10.10;99.90;;;;;;5037397;28;20442;-80
2024/02/29 16:14:20;;;;;;;10.80;3.10;;;10.10;99.90;;;;;;5055042;28;20454;-80
2024/02/29 16:16:48;;;;;;;14.90;5.00;;;10.00;99.90;;;;;;5052159;28;20471;-80
2024/02/29 16:19:15;;;;;;;5.70;3.30;;;10.00;99.90;;;;;;5043188;28;20458;-81
2024/02/29 16:21:42;;;;;;;9.93;4.27;;;10.00;99.90;;;;;;5040948;28;20443;-81
2024/02/29 16:24:09;;;;;;;6.27;3.70;;;10.00;99.90;;;;;;5041343;28;20860;-80
2024/02/29 16:26:35;;;;;;;8.77;4.00;;;9.90;99.90;;;;;;5042254;28;20485;-81
2024/02/29 16:29:03;;;;;;;6.30;3.97;;;9.80;99.90;;;;;;5042807;28;20966;-81
2024/02/29 16:31:31;;;;;;;7.17;3.03;;;9.70;99.90;;;;;;5040401;28;21009;-80
2024/02/29 16:33:58;;;;;;;13.60;3.83;;;9.70;99.90;;;;;;5040795;28;20438;-80
2024/02/29 16:36:24;;;;;;;7.40;4.43;;;9.60;99.90;;;;;;5040283;28;20482;-80
2024/02/29 16:38:51;;;;;;;5.60;3.40;;;9.60;99.90;;;;;;5040328;28;20518;-81
2024/02/29 16:41:19;;;;;;;4.13;2.60;;;9.50;99.90;;;;;;5040136;28;20454;-81
2024/02/29 16:43:47;;;;;;;14.93;3.77;;;9.50;99.90;;;;;;5039727;28;20475;-81
2024/02/29 16:46:13;;;;;;;8.93;3.33;;;9.50;99.90;;;;;;5039276;28;20880;-88
2024/02/29 16:48:41;;;;;;;8.63;3.77;;;9.40;99.90;;;;;;5038352;28;20443;-79
2024/02/29 16:51:08;;;;;;;6.93;3.37;;;9.40;99.90;;;;;;5038590;28;20454;-80
2024/02/29 16:53:35;;;;;;;9.80;3.67;;;9.40;99.90;;;;;;5039543;28;20807;-80
2024/02/29 16:56:02;;;;;;;8.17;3.63;;;9.40;99.90;;;;;;5038430;28;20454;-80
2024/02/29 16:58:28;;;;;;;9.87;4.00;;;9.30;99.90;;;;;;5037352;28;20470;-80
2024/02/29 17:00:55;;;;;;;16.07;4.93;;;9.20;99.90;;;;;;5039696;28;20447;-80
2024/02/29 17:03:22;;;;;;;4.80;2.50;;;9.10;99.90;;;;;;5038624;28;20471;-80
2024/02/29 17:05:50;;;;;;;9.37;3.63;;;9.10;99.90;;;;;;5038762;28;20431;-80
2024/02/29 17:08:16;;;;;;;7.10;3.63;;;9.10;99.90;;;;;;5037442;28;20844;-80
2024/02/29 17:10:43;;;;;;;10.27;3.90;;;9.00;99.90;;;;;;5038673;28;20442;-80
2024/02/29 17:13:10;;;;;;;4.17;2.37;;;8.90;99.90;;;;;;5037699;28;20435;-80
2024/02/29 17:15:37;;;;;;;8.97;2.90;;;8.90;99.90;;;;;;5037553;28;20450;-80